VLG2EC LEBL-EKCH
Flight info
| Callsign | VLG2EC |
|---|---|
| Flight time | N/A |
| Altitude | 36000 |
| Route | OLOXO1R/06R OLOXO DCT OKABI DCT TOU DCT ADABI DCT BOKNO UN858 VANAD UN874 BAMES UT191 PODEM DCT BAZOS DCT BELDI DCT VICOT DCT DOSUR DCT TALSA P729 TUDLO |
| Aircraft | A321/M-SDE3FGHIRWY/LB1 |
Departure
| Time | N/A |
|---|---|
| Airport | Josep Tarradellas Barcelona-El Prat Airport (LEBL) |
Arrival
| Time | 2026-04-30 18:41 |
|---|---|
| Airport | Copenhagen Kastrup Airport (EKCH) |
| Time | Latitude | Longitude | Altitude | Speed | Heading |
|---|---|---|---|---|---|
| 2026-04-30 17:39 | 51.78517 | 4.46838 | 36318 ft | 446 kts | 43° |
| 2026-04-30 17:42 | 52.01984 | 4.79693 | 36322 ft | 446 kts | 44° |
| 2026-04-30 17:43 | 52.13662 | 4.96212 | 36354 ft | 445 kts | 43° |
| 2026-04-30 17:44 | 52.27592 | 5.16074 | 36359 ft | 443 kts | 43° |
| 2026-04-30 17:47 | 52.48377 | 5.46049 | 36348 ft | 442 kts | 43° |
| 2026-04-30 17:48 | 52.64452 | 5.69505 | 36376 ft | 442 kts | 43° |
| 2026-04-30 17:50 | 52.82770 | 5.96497 | 36385 ft | 441 kts | 43° |
| 2026-04-30 17:52 | 52.96446 | 6.16898 | 36406 ft | 441 kts | 42° |
| 2026-04-30 17:54 | 53.16858 | 6.47661 | 36416 ft | 441 kts | 42° |
| 2026-04-30 17:56 | 53.34977 | 6.75298 | 36428 ft | 440 kts | 42° |
| 2026-04-30 17:58 | 53.48371 | 6.96248 | 36437 ft | 438 kts | 47° |
| 2026-04-30 18:00 | 53.64430 | 7.27171 | 36439 ft | 440 kts | 48° |
| 2026-04-30 18:01 | 53.74432 | 7.46571 | 36454 ft | 439 kts | 48° |
| 2026-04-30 18:02 | 53.86403 | 7.70143 | 36451 ft | 441 kts | 48° |
| 2026-04-30 18:04 | 53.98384 | 7.93804 | 36471 ft | 441 kts | 49° |
| 2026-04-30 18:06 | 54.14298 | 8.25610 | 36462 ft | 442 kts | 49° |
| 2026-04-30 18:08 | 54.28192 | 8.53725 | 36475 ft | 443 kts | 49° |
| 2026-04-30 18:10 | 54.43310 | 8.84674 | 36467 ft | 442 kts | 49° |
| 2026-04-30 18:11 | 54.57041 | 9.13136 | 36474 ft | 442 kts | 49° |
| 2026-04-30 18:13 | 54.66798 | 9.33572 | 36479 ft | 441 kts | 49° |
| 2026-04-30 18:14 | 54.76540 | 9.54120 | 36467 ft | 441 kts | 49° |
| 2026-04-30 18:15 | 54.88168 | 9.78872 | 36484 ft | 442 kts | 49° |
| 2026-04-30 18:16 | 54.92010 | 9.87110 | 36220 ft | 440 kts | 49° |
| 2026-04-30 18:16 | 54.95849 | 9.95388 | 34994 ft | 440 kts | 49° |
| 2026-04-30 18:17 | 54.97780 | 9.99553 | 34357 ft | 441 kts | 49° |
| 2026-04-30 18:17 | 54.99690 | 10.03739 | 33616 ft | 443 kts | 53° |
| 2026-04-30 18:17 | 55.02187 | 10.13613 | 32134 ft | 449 kts | 68° |
| 2026-04-30 18:18 | 55.03200 | 10.18732 | 31375 ft | 451 kts | 68° |
| 2026-04-30 18:18 | 55.04212 | 10.23921 | 30622 ft | 453 kts | 68° |
| 2026-04-30 18:18 | 55.05223 | 10.29138 | 29786 ft | 454 kts | 68° |
| 2026-04-30 18:18 | 55.06230 | 10.34345 | 29471 ft | 455 kts | 68° |
| 2026-04-30 18:19 | 55.07243 | 10.39596 | 29437 ft | 456 kts | 68° |
| 2026-04-30 18:19 | 55.09283 | 10.50112 | 29450 ft | 458 kts | 68° |
| 2026-04-30 18:20 | 55.11325 | 10.60666 | 29446 ft | 458 kts | 68° |
| 2026-04-30 18:20 | 55.13357 | 10.71225 | 29441 ft | 459 kts | 69° |
| 2026-04-30 18:21 | 55.15366 | 10.81813 | 29446 ft | 459 kts | 69° |
| 2026-04-30 18:21 | 55.17355 | 10.92346 | 29442 ft | 459 kts | 69° |
| 2026-04-30 18:22 | 55.19360 | 11.02961 | 29441 ft | 459 kts | 69° |
| 2026-04-30 18:22 | 55.22323 | 11.18796 | 28567 ft | 455 kts | 69° |
| 2026-04-30 18:23 | 55.23312 | 11.24106 | 27614 ft | 457 kts | 69° |
| 2026-04-30 18:23 | 55.24292 | 11.29393 | 26699 ft | 458 kts | 69° |
| 2026-04-30 18:23 | 55.25278 | 11.34729 | 25781 ft | 459 kts | 69° |
| 2026-04-30 18:23 | 55.26260 | 11.40060 | 24851 ft | 460 kts | 69° |
| 2026-04-30 18:24 | 55.28177 | 11.50524 | 24062 ft | 437 kts | 70° |
| 2026-04-30 18:24 | 55.29086 | 11.55508 | 23933 ft | 420 kts | 70° |
| 2026-04-30 18:24 | 55.29963 | 11.60332 | 23372 ft | 400 kts | 69° |
| 2026-04-30 18:25 | 55.30785 | 11.64866 | 22614 ft | 382 kts | 69° |
| 2026-04-30 18:25 | 55.32617 | 11.73204 | 20959 ft | 358 kts | 53° |
| 2026-04-30 18:25 | 55.34318 | 11.76381 | 19524 ft | 359 kts | 37° |
| 2026-04-30 18:26 | 55.38437 | 11.81689 | 16538 ft | 383 kts | 35° |
| 2026-04-30 18:26 | 55.40645 | 11.84416 | 15509 ft | 392 kts | 35° |
| 2026-04-30 18:26 | 55.42901 | 11.87163 | 14779 ft | 391 kts | 35° |
| 2026-04-30 18:27 | 55.47370 | 11.92536 | 13452 ft | 386 kts | 35° |
| 2026-04-30 18:27 | 55.49583 | 11.95195 | 12755 ft | 383 kts | 35° |
| 2026-04-30 18:28 | 55.53950 | 12.00486 | 11370 ft | 378 kts | 35° |
| 2026-04-30 18:28 | 55.56074 | 12.03079 | 10730 ft | 375 kts | 35° |
| 2026-04-30 18:28 | 55.60154 | 12.08087 | 10476 ft | 339 kts | 35° |
| 2026-04-30 18:29 | 55.62047 | 12.10417 | 10356 ft | 323 kts | 35° |
| 2026-04-30 18:29 | 55.67234 | 12.16808 | 9958 ft | 285 kts | 35° |
| 2026-04-30 18:30 | 55.70376 | 12.20680 | 9685 ft | 264 kts | 35° |
| 2026-04-30 18:30 | 55.73284 | 12.24292 | 9425 ft | 245 kts | 35° |
| 2026-04-30 18:31 | 55.74663 | 12.26009 | 9232 ft | 239 kts | 35° |
| 2026-04-30 18:31 | 55.77361 | 12.29359 | 8608 ft | 236 kts | 35° |
| 2026-04-30 18:32 | 55.79828 | 12.33085 | 7990 ft | 233 kts | 62° |
| 2026-04-30 18:32 | 55.80172 | 12.35864 | 7664 ft | 234 kts | 94° |
| 2026-04-30 18:32 | 55.78307 | 12.40409 | 6990 ft | 245 kts | 156° |
| 2026-04-30 18:33 | 55.76609 | 12.40804 | 6631 ft | 250 kts | 184° |
| 2026-04-30 18:33 | 55.73202 | 12.39712 | 5957 ft | 250 kts | 190° |
| 2026-04-30 18:33 | 55.71503 | 12.39090 | 5646 ft | 248 kts | 190° |
| 2026-04-30 18:34 | 55.69807 | 12.38473 | 5344 ft | 247 kts | 190° |
| 2026-04-30 18:34 | 55.66453 | 12.37276 | 4697 ft | 244 kts | 190° |
| 2026-04-30 18:34 | 55.64811 | 12.36708 | 4375 ft | 243 kts | 190° |
| 2026-04-30 18:35 | 55.63142 | 12.36147 | 4050 ft | 242 kts | 190° |
| 2026-04-30 18:35 | 55.61490 | 12.35611 | 3730 ft | 241 kts | 190° |
| 2026-04-30 18:35 | 55.59840 | 12.35090 | 3413 ft | 240 kts | 190° |
| 2026-04-30 18:36 | 55.56590 | 12.34138 | 3003 ft | 238 kts | 190° |
| 2026-04-30 18:36 | 55.54950 | 12.33677 | 3013 ft | 240 kts | 190° |
| 2026-04-30 18:36 | 55.51638 | 12.32998 | 3012 ft | 240 kts | 171° |
| 2026-04-30 18:37 | 55.50034 | 12.33873 | 3018 ft | 242 kts | 157° |
| 2026-04-30 18:37 | 55.48482 | 12.35033 | 3010 ft | 242 kts | 155° |
| 2026-04-30 18:37 | 55.47061 | 12.36525 | 3004 ft | 239 kts | 131° |
| 2026-04-30 18:37 | 55.46266 | 12.39021 | 3013 ft | 232 kts | 95° |
| 2026-04-30 18:38 | 55.46525 | 12.41712 | 2996 ft | 222 kts | 53° |
| 2026-04-30 18:38 | 55.47679 | 12.43392 | 2925 ft | 216 kts | 20° |
| 2026-04-30 18:38 | 55.49030 | 12.44564 | 2682 ft | 218 kts | 35° |
| 2026-04-30 18:38 | 55.50169 | 12.46345 | 2411 ft | 219 kts | 39° |
| 2026-04-30 18:39 | 55.51295 | 12.48139 | 2121 ft | 218 kts | 38° |
| 2026-04-30 18:39 | 55.52430 | 12.49897 | 1852 ft | 214 kts | 37° |
| 2026-04-30 18:39 | 55.53547 | 12.51616 | 1535 ft | 211 kts | 38° |
| 2026-04-30 18:39 | 55.54641 | 12.53298 | 1251 ft | 205 kts | 38° |
| 2026-04-30 18:40 | 55.55662 | 12.54874 | 1005 ft | 184 kts | 37° |
| 2026-04-30 18:40 | 55.56548 | 12.56241 | 786 ft | 158 kts | 38° |
| 2026-04-30 18:40 | 55.57336 | 12.57453 | 557 ft | 146 kts | 38° |
| 2026-04-30 18:40 | 55.58090 | 12.58614 | 359 ft | 141 kts | 38° |
| 2026-04-30 18:41 | 55.58822 | 12.59735 | 192 ft | 138 kts | 38° |
| 2026-04-30 18:41 | 55.59546 | 12.60854 | 38 ft | 136 kts | 39° |
| 2026-04-30 18:41 | 55.60146 | 12.61775 | 29 ft | 90 kts | 41° |
| 2026-04-30 18:41 | 55.60449 | 12.62232 | 26 ft | 25 kts | 33° |
| 2026-04-30 18:42 | 55.60608 | 12.62337 | 28 ft | 24 kts | 13° |
| 2026-04-30 18:42 | 55.60910 | 12.62580 | 24 ft | 24 kts | 41° |
| 2026-04-30 18:42 | 55.61037 | 12.62776 | 25 ft | 25 kts | 40° |
| 2026-04-30 18:45 | 55.62152 | 12.64305 | 23 ft | 0 kts | 25° |
| 2026-04-30 18:47 | 55.62154 | 12.64307 | 23 ft | 1 kts | 25° |
| 2026-04-30 18:47 | 55.62174 | 12.64323 | 25 ft | 5 kts | 25° |
| 2026-04-30 18:47 | 55.62219 | 12.64361 | 23 ft | 9 kts | 25° |
| 2026-04-30 18:47 | 55.62256 | 12.64444 | 22 ft | 8 kts | 57° |
| 2026-04-30 18:48 | 55.62267 | 12.64474 | 23 ft | 9 kts | 58° |